Time;durP1;ratioP1;P1;durP2;ratioP2;P2;SDS_P1;SDS_P2;PMS_P1;PMS_P2;Temp;Humidity;BMP_temperature;BMP_pressure;BME280_temperature;BME280_humidity;BME280_pressure;Samples;Min_cycle;Max_cycle;Signal;HPM_P1;HPM_P2
2023/01/04 00:01:58;;;;;;;12.60;5.82;;;;;;;8.76;100.00;98770.41;5131497;27;20038;-84
2023/01/04 00:04:25;;;;;;;14.10;6.25;;;;;;;8.63;100.00;98752.88;5130624;27;20587;-84
2023/01/04 00:06:52;;;;;;;14.23;5.53;;;;;;;8.62;100.00;98745.16;5129094;27;20058;-84
2023/01/04 00:09:18;;;;;;;12.18;5.63;;;;;;;8.74;100.00;98744.41;5132955;27;20057;-84
2023/01/04 00:11:45;;;;;;;8.68;3.67;;;;;;;8.64;100.00;98720.66;5123945;27;20042;-84
2023/01/04 00:14:13;;;;;;;10.13;4.70;;;;;;;8.54;100.00;98704.72;5126826;27;20711;-84
2023/01/04 00:16:39;;;;;;;11.43;4.30;;;;;;;8.52;100.00;98690.13;5128401;27;20047;-84
2023/01/04 00:19:06;;;;;;;10.07;4.60;;;;;;;8.58;100.00;98701.94;5146526;27;20119;-84
2023/01/04 00:21:33;;;;;;;11.40;5.35;;;;;;;8.70;100.00;98690.75;5124214;27;20541;-83
2023/01/04 00:24:00;;;;;;;9.20;4.00;;;;;;;9.04;100.00;98728.59;5144628;27;20361;-83
2023/01/04 00:26:30;;;;;;;8.63;3.63;;;;;;;9.03;100.00;98724.31;5127499;27;20054;-83
2023/01/04 00:28:59;;;;;;;9.70;3.47;;;;;;;9.08;100.00;98719.66;5146480;27;20532;-83
2023/01/04 00:31:27;;;;;;;7.45;2.90;;;;;;;8.65;100.00;98666.72;5144779;27;20050;-83
2023/01/04 00:33:56;;;;;;;8.48;3.28;;;;;;;8.63;100.00;98645.09;5145262;27;20055;-84
2023/01/04 00:36:23;;;;;;;9.05;3.50;;;;;;;8.99;100.00;98701.94;5148179;27;20050;-83
2023/01/04 00:39:05;;;;;;;8.75;3.15;;;;;;;9.00;100.00;98689.75;5150983;27;20054;-84
2023/01/04 00:41:45;;;;;;;7.68;3.10;;;;;;;9.04;100.00;98679.00;5145384;27;20071;-84
2023/01/04 00:44:28;;;;;;;;;;;;;;;9.09;100.00;98661.25;5148921;27;20038;-84
2023/01/04 00:46:55;;;;;;;5.93;2.30;;;;;;;8.91;100.00;98628.53;5132134;27;20367;-84
2023/01/04 00:49:22;;;;;;;7.65;3.08;;;;;;;8.96;100.00;98629.06;5135352;27;20043;-83
2023/01/04 00:51:49;;;;;;;8.05;2.92;;;;;;;9.04;100.00;98637.22;5129946;27;20472;-84
2023/01/04 00:54:16;;;;;;;6.68;2.58;;;;;;;8.87;100.00;98603.53;5125130;27;20508;-83
2023/01/04 00:56:43;;;;;;;7.90;2.58;;;;;;;8.78;100.00;98585.88;5121376;27;20067;-83
2023/01/04 00:59:12;;;;;;;7.97;2.85;;;;;;;9.07;100.00;98623.16;5153845;27;20129;-84
2023/01/04 01:01:39;;;;;;;7.15;2.75;;;;;;;8.91;100.00;98602.44;5132609;27;20058;-83
2023/01/04 01:04:06;;;;;;;7.93;3.00;;;;;;;9.03;100.00;98619.91;5130620;27;20065;-84
2023/01/04 01:06:33;;;;;;;7.70;2.83;;;;;;;9.08;100.00;98622.19;5133109;27;20046;-83
2023/01/04 01:09:00;;;;;;;6.13;2.20;;;;;;;9.05;100.00;98601.53;5117043;27;20051;-83
2023/01/04 01:11:28;;;;;;;7.20;2.75;;;;;;;8.89;100.00;98567.78;5134506;27;20047;-83
2023/01/04 01:13:56;;;;;;;6.38;2.58;;;;;;;9.14;100.00;98603.53;5126573;27;20055;-83
2023/01/04 01:16:24;;;;;;;7.50;2.40;;;;;;;9.08;100.00;98593.47;5149037;27;20066;-83
2023/01/04 01:19:11;;;;;;;5.80;2.10;;;;;;;9.17;100.00;98597.25;5152283;27;20055;-83
2023/01/04 01:21:38;;;;;;;6.50;2.22;;;;;;;9.14;100.00;98587.88;5131213;27;20066;-84
2023/01/04 01:24:05;;;;;;;4.68;1.88;;;;;;;9.13;100.00;98594.03;5120485;27;20042;-83
2023/01/04 01:26:32;;;;;;;6.18;2.30;;;;;;;9.16;100.00;98590.38;5135600;27;20046;-83
2023/01/04 01:28:59;;;;;;;7.70;2.85;;;;;;;8.93;100.00;98543.13;5135276;27;20134;-84
2023/01/04 01:31:27;;;;;;;6.72;2.38;;;;;;;8.98;100.00;98546.28;5153323;27;20050;-83
2023/01/04 01:33:55;;;;;;;6.30;2.28;;;;;;;9.16;100.00;98562.50;5152758;27;20049;-83
2023/01/04 01:36:25;;;;;;;4.70;1.67;;;;;;;9.01;100.00;98526.97;5153067;27;20406;-83
2023/01/04 01:38:53;;;;;;;6.82;2.00;;;;;;;9.02;100.00;98519.03;5152883;27;20406;-83
2023/01/04 01:41:22;;;;;;;4.20;1.60;;;;;;;9.19;100.00;98519.66;5146973;27;20047;-83
2023/01/04 01:43:53;;;;;;;6.07;2.28;;;;;;;8.88;100.00;98465.13;5148963;27;20047;-83
2023/01/04 01:46:47;;;;;;;6.38;2.10;;;;;;;9.02;100.00;98481.66;5130372;27;20505;-83
2023/01/04 01:49:43;;;;;;;5.30;1.92;;;;;;;9.15;100.00;98507.78;5153168;27;20047;-83
2023/01/04 01:52:21;;;;;;;6.20;2.13;;;;;;;9.06;100.00;98485.72;5131400;27;20441;-84
2023/01/04 01:54:58;;;;;;;4.82;1.83;;;;;;;8.92;100.00;98458.78;5131024;27;20436;-83
2023/01/04 01:57:29;;;;;;;5.53;2.10;;;;;;;8.89;100.00;98455.56;5140645;27;20049;-82
2023/01/04 02:00:00;;;;;;;5.63;2.40;;;;;;;8.69;100.00;98400.31;5151769;27;20400;-83
2023/01/04 02:02:26;;;;;;;5.70;2.10;;;;;;;9.02;100.00;98461.59;5143397;27;20055;-83
2023/01/04 02:04:54;;;;;;;5.80;2.05;;;;;;;8.71;100.00;98416.72;5120325;28;20074;-83
2023/01/04 02:07:25;;;;;;;6.80;2.55;;;;;;;8.84;100.00;98419.31;5120318;27;20475;-83
2023/01/04 02:09:53;;;;;;;6.03;2.05;;;;;;;8.86;100.00;98409.59;5152928;27;20058;-83
2023/01/04 02:12:20;;;;;;;6.43;2.40;;;;;;;8.71;100.00;98389.75;5148179;27;20392;-84
2023/01/04 02:14:49;;;;;;;7.78;2.60;;;;;;;8.83;100.00;98417.63;5132389;27;20400;-83
2023/01/04 02:17:23;;;;;;;6.60;2.28;;;;;;;8.55;100.00;98348.22;5133393;27;20043;-84
2023/01/04 02:20:09;;;;;;;5.43;2.13;;;;;;;8.92;100.00;98388.31;5124884;27;20066;-83
2023/01/04 02:22:59;;;;;;;5.80;2.10;;;;;;;9.17;100.00;98424.94;5124132;27;20062;-83
2023/01/04 02:25:58;;;;;;;6.22;2.28;;;;;;;8.95;100.00;98399.50;5152897;27;20050;-83
2023/01/04 02:28:59;;;;;;;6.15;2.22;;;;;;;9.18;100.00;98437.06;5121305;27;20388;-83
2023/01/04 02:31:46;;;;;;;6.13;1.98;;;;;;;9.18;100.00;98439.69;5152760;27;20572;-83
2023/01/04 02:34:34;;;;;;;4.50;1.80;;;;;;;9.19;100.00;98442.19;5129635;27;20121;-84
2023/01/04 02:37:33;;;;;;;9.75;3.17;;;;;;;8.97;100.00;98448.03;5123013;27;20047;-84
2023/01/04 02:40:29;;;;;;;7.75;2.78;;;;;;;8.99;100.00;98474.03;5117010;28;20485;-83
2023/01/04 02:46:01;;;;;;;4.45;1.65;;;;;;;8.88;100.00;98410.34;5152216;27;20043;-82
2023/01/04 02:51:33;;;;;;;3.63;1.42;;;;;;;8.90;100.00;98431.09;5147641;27;20051;-82
2023/01/04 02:54:07;;;;;;;3.20;1.40;;;;;;;8.86;100.00;98411.38;5138684;27;20053;-82
2023/01/04 02:56:37;;;;;;;4.55;1.33;;;;;;;8.90;100.00;98413.66;5137079;27;20046;-82
2023/01/04 02:59:04;;;;;;;2.10;1.20;;;;;;;8.91;100.00;98410.13;5133922;27;20476;-83
2023/01/04 03:08:11;;;;;;;1.92;1.00;;;;;;;8.60;100.00;98424.38;5146127;27;20050;-83
2023/01/04 03:10:44;;;;;;;1.52;1.08;;;;;;;8.31;100.00;98392.41;5155464;27;20046;-83
2023/01/04 03:13:24;;;;;;;2.00;1.20;;;;;;;8.41;100.00;98416.06;5137271;27;20647;-84
2023/01/04 03:16:03;;;;;;;2.20;1.30;;;;;;;8.59;100.00;98427.09;5143712;27;20364;-83
2023/01/04 03:18:35;;;;;;;2.75;1.27;;;;;;;8.40;100.00;98412.66;5155753;27;20047;-84
2023/01/04 03:21:03;;;;;;;1.45;0.90;;;;;;;8.35;100.00;98420.75;5117584;27;20047;-84
2023/01/04 03:35:26;;;;;;;5.05;2.13;;;;;;;7.50;100.00;98416.66;5145589;27;20052;-84
2023/01/04 03:50:32;;;;;;;5.32;2.00;;;;;;;7.04;100.00;98413.31;5143482;27;20396;-85
2023/01/04 03:53:00;;;;;;;7.05;2.10;;;;;;;6.72;100.00;98398.78;5123179;27;20103;-84
2023/01/04 03:55:29;;;;;;;5.32;2.00;;;;;;;6.86;100.00;98432.63;5128178;27;20469;-84
2023/01/04 03:57:58;;;;;;;4.38;1.80;;;;;;;6.61;100.00;98402.88;5130546;27;20050;-84
2023/01/04 04:00:25;;;;;;;4.40;1.73;;;;;;;6.75;100.00;98435.03;5130793;27;20419;-84
2023/01/04 04:02:52;;;;;;;5.32;1.92;;;;;;;6.42;100.00;98387.50;5155340;27;20184;-84
2023/01/04 04:08:27;;;;;;;3.78;1.50;;;;;;;6.57;100.00;98450.78;5153970;27;20050;-84
2023/01/04 04:13:49;;;;;;;4.15;1.67;;;;;;;6.66;100.00;98475.41;5143885;27;20062;-84
2023/01/04 04:16:16;;;;;;;4.32;1.70;;;;;;;6.56;100.00;98441.28;5123665;27;20050;-84
2023/01/04 04:18:43;;;;;;;4.10;1.73;;;;;;;6.57;100.00;98439.50;5155283;27;20057;-84
2023/01/04 04:21:10;;;;;;;3.20;1.45;;;;;;;6.35;100.00;98409.56;5132613;27;20043;-85
2023/01/04 04:23:37;;;;;;;2.25;1.20;;;;;;;6.77;100.00;98462.63;5151139;27;20058;-85
2023/01/04 04:26:04;;;;;;;2.95;1.20;;;;;;;6.74;100.00;98452.38;5154593;27;20441;-85
2023/01/04 04:28:31;;;;;;;1.80;1.05;;;;;;;6.53;100.00;98440.63;5135954;27;20042;-84
2023/01/04 04:30:58;;;;;;;2.65;1.25;;;;;;;6.39;100.00;98437.06;5124993;27;20112;-84
2023/01/04 04:33:24;;;;;;;2.08;1.13;;;;;;;6.69;100.00;98482.19;5154226;27;20065;-84
2023/01/04 04:35:53;;;;;;;2.25;1.17;;;;;;;6.17;100.00;98421.03;5136048;27;20043;-84
2023/01/04 04:38:21;;;;;;;1.77;1.15;;;;;;;6.89;100.00;98513.09;5153968;27;20038;-86
2023/01/04 04:43:34;;;;;;;2.40;1.20;;;;;;;6.67;100.00;98508.28;5142735;27;20039;-85
2023/01/04 04:46:01;;;;;;;2.15;1.20;;;;;;;6.77;100.00;98511.19;5134259;27;20047;-84
2023/01/04 04:48:28;;;;;;;3.08;1.30;;;;;;;6.54;100.00;98504.72;5150343;27;20046;-84
2023/01/04 04:50:55;;;;;;;1.92;0.98;;;;;;;6.70;100.00;98525.50;5134665;27;20459;-84
2023/01/04 04:53:22;;;;;;;1.33;0.90;;;;;;;6.79;100.00;98509.34;5144807;27;20528;-84
2023/01/04 04:55:53;;;;;;;2.47;1.15;;;;;;;6.73;100.00;98509.69;5122700;27;20130;-84
2023/01/04 04:58:20;;;;;;;1.95;1.00;;;;;;;7.01;100.00;98571.38;5133714;27;20544;-84
2023/01/04 05:00:47;;;;;;;1.25;1.02;;;;;;;6.51;100.00;98499.69;5153567;27;20637;-84
2023/01/04 05:03:13;;;;;;;1.63;1.10;;;;;;;6.72;100.00;98542.66;5130508;27;20439;-85
2023/01/04 05:05:41;;;;;;;1.13;0.90;;;;;;;6.85;100.00;98558.41;5135651;27;20046;-85
2023/01/04 05:08:08;;;;;;;1.33;0.90;;;;;;;6.62;100.00;98541.50;5135355;27;20042;-85
2023/01/04 05:10:36;;;;;;;1.80;0.90;;;;;;;6.77;100.00;98545.84;5153400;27;20046;-84
2023/01/04 05:13:05;;;;;;;1.95;1.08;;;;;;;7.01;100.00;98590.44;5129590;27;20091;-84
2023/01/04 05:15:37;;;;;;;0.80;0.80;;;;;;;6.27;100.00;98502.75;5154191;27;20047;-85
2023/01/04 05:18:05;;;;;;;1.40;1.00;;;;;;;6.76;100.00;98577.97;5153938;27;20095;-84
2023/01/04 05:20:32;;;;;;;0.80;0.80;;;;;;;6.75;100.00;98583.28;5153058;27;20445;-84
2023/01/04 05:22:59;;;;;;;1.23;0.90;;;;;;;6.93;100.00;98612.63;5134688;27;20054;-84
2023/01/04 05:25:26;;;;;;;1.00;0.90;;;;;;;6.42;100.00;98568.63;5134486;27;20058;-84
2023/01/04 05:27:53;;;;;;;0.80;0.80;;;;;;;6.24;100.00;98547.91;5127958;27;20046;-84
2023/01/04 05:33:06;;;;;;;0.80;0.80;;;;;;;6.47;100.00;98616.84;5140519;27;20058;-83
2023/01/04 05:35:33;;;;;;;1.02;0.93;;;;;;;6.31;100.00;98571.81;5134727;27;20050;-84
2023/01/04 05:38:00;;;;;;;1.00;0.90;;;;;;;6.22;100.00;98567.13;5134639;27;20039;-84
2023/01/04 05:40:27;;;;;;;1.00;0.90;;;;;;;6.17;100.00;98582.94;5129367;27;20047;-84
2023/01/04 05:42:53;;;;;;;1.05;0.90;;;;;;;6.30;100.00;98611.72;5120022;27;20392;-84
2023/01/04 05:45:20;;;;;;;1.33;0.90;;;;;;;6.44;100.00;98632.59;5152451;27;20047;-85
2023/01/04 05:47:52;;;;;;;1.00;0.90;;;;;;;6.65;100.00;98640.97;5119674;27;20047;-84
2023/01/04 05:50:20;;;;;;;1.48;0.90;;;;;;;6.27;100.00;98610.13;5132428;27;20046;-84
2023/01/04 05:52:48;;;;;;;0.80;0.80;;;;;;;6.50;100.00;98633.19;5147538;27;20079;-84
2023/01/04 05:55:15;;;;;;;1.00;0.90;;;;;;;6.31;100.00;98600.41;5153147;27;20050;-84
2023/01/04 05:57:42;;;;;;;1.00;0.88;;;;;;;6.11;100.00;98587.63;5132253;27;20507;-84
2023/01/04 06:00:10;;;;;;;1.00;0.90;;;;;;;6.03;100.00;98581.09;5128358;27;20051;-84
2023/01/04 06:02:37;;;;;;;0.93;0.90;;;;;;;5.91;100.00;98599.88;5123231;27;20054;-84
2023/01/04 06:05:04;;;;;;;1.00;0.90;;;;;;;5.96;100.00;98607.47;5130473;28;20372;-84
2023/01/04 06:07:31;;;;;;;1.20;0.90;;;;;;;6.44;100.00;98696.75;5124516;27;20429;-84
2023/01/04 06:09:58;;;;;;;1.80;0.90;;;;;;;6.28;100.00;98647.34;5152884;27;20176;-84
2023/01/04 06:12:25;;;;;;;1.70;0.90;;;;;;;6.34;100.00;98669.56;5152455;27;20043;-83
2023/01/04 06:14:52;;;;;;;1.00;0.90;;;;;;;6.44;100.00;98701.94;5134580;27;20746;-83
2023/01/04 06:17:19;;;;;;;1.20;0.80;;;;;;;6.12;100.00;98646.47;5147721;27;20431;-83
2023/01/04 06:19:46;;;;;;;1.10;1.00;;;;;;;5.89;100.00;98640.69;5152973;27;20056;-82
2023/01/04 06:22:13;;;;;;;1.20;0.90;;;;;;;6.20;100.00;98711.91;5131193;27;20046;-83
2023/01/04 06:24:40;;;;;;;1.05;0.95;;;;;;;5.96;100.00;98669.81;5134974;27;20407;-83
2023/01/04 06:27:07;;;;;;;1.10;0.93;;;;;;;6.23;100.00;98709.97;5132069;27;20047;-82
2023/01/04 06:29:33;;;;;;;0.80;0.80;;;;;;;6.29;100.00;98674.19;5146793;27;20043;-82
2023/01/04 06:32:00;;;;;;;0.80;0.80;;;;;;;6.11;100.00;98650.84;5133937;27;20054;-84
2023/01/04 06:34:27;;;;;;;0.80;0.80;;;;;;;6.38;100.00;98707.50;5116809;28;20039;-84
2023/01/04 06:36:57;;;;;;;1.33;0.90;;;;;;;6.11;100.00;98688.97;5134083;27;20047;-82
2023/01/04 06:39:24;;;;;;;0.80;0.80;;;;;;;6.31;100.00;98709.56;5146921;27;20054;-82
2023/01/04 06:41:51;;;;;;;1.00;0.90;;;;;;;6.16;100.00;98687.81;5137701;27;20058;-83
2023/01/04 06:44:18;;;;;;;1.10;1.00;;;;;;;6.27;100.00;98708.06;5156633;27;20047;-85
2023/01/04 06:46:44;;;;;;;1.65;0.98;;;;;;;6.03;100.00;98681.56;5133665;27;20047;-85
2023/01/04 06:49:11;;;;;;;1.00;0.90;;;;;;;6.26;100.00;98720.19;5138332;27;20042;-84
2023/01/04 06:51:38;;;;;;;1.92;1.00;;;;;;;6.40;100.00;98740.25;5138018;27;20148;-84
2023/01/04 06:54:05;;;;;;;1.00;0.90;;;;;;;6.13;100.00;98687.97;5138822;27;20042;-87
2023/01/04 06:56:32;;;;;;;1.00;0.90;;;;;;;6.30;100.00;98709.63;5125398;27;20050;-83
2023/01/04 06:58:59;;;;;;;1.00;0.90;;;;;;;6.23;100.00;98722.97;5156828;27;20055;-83
2023/01/04 07:01:25;;;;;;;1.20;1.00;;;;;;;6.26;100.00;98730.59;5137458;27;20123;-84
2023/01/04 07:03:52;;;;;;;0.80;0.80;;;;;;;6.40;100.00;98750.66;5129417;27;20499;-84
2023/01/04 07:06:19;;;;;;;0.95;0.88;;;;;;;6.55;100.00;98780.25;5131594;27;20126;-83
2023/01/04 07:08:46;;;;;;;1.00;0.90;;;;;;;6.25;100.00;98756.66;5156478;27;20480;-83
2023/01/04 07:11:13;;;;;;;1.10;0.90;;;;;;;6.17;100.00;98738.88;5151705;27;20049;-86
2023/01/04 07:13:39;;;;;;;2.33;1.00;;;;;;;6.18;100.00;98731.91;5138231;27;20050;-86
2023/01/04 07:16:06;;;;;;;1.00;0.90;;;;;;;6.40;100.00;98771.47;5137830;27;20050;-83
2023/01/04 07:18:33;;;;;;;1.45;0.90;;;;;;;6.20;100.00;98740.47;5151465;27;20462;-86
2023/01/04 07:20:59;;;;;;;1.00;0.90;;;;;;;6.10;100.00;98741.88;5154388;27;20068;-86
2023/01/04 07:23:26;;;;;;;1.52;0.80;;;;;;;6.39;100.00;98785.41;5139544;27;20047;-86
2023/01/04 07:25:53;;;;;;;0.80;0.80;;;;;;;6.39;100.00;98769.78;5155265;27;20047;-85
2023/01/04 07:31:06;;;;;;;1.33;0.90;;;;;;;6.40;100.00;98784.47;5153893;27;20487;-86
2023/01/04 07:33:33;;;;;;;0.98;0.90;;;;;;;6.40;100.00;98789.66;5156473;27;20482;-83
2023/01/04 07:36:02;;;;;;;0.98;0.88;;;;;;;6.28;100.00;98777.28;5137608;27;20051;-86
2023/01/04 07:38:29;;;;;;;1.20;0.80;;;;;;;6.33;100.00;98779.66;5127453;27;20047;-83
2023/01/04 07:40:56;;;;;;;0.82;0.80;;;;;;;6.33;100.00;98779.66;5149248;27;20686;-84
2023/01/04 07:43:23;;;;;;;1.20;1.00;;;;;;;6.25;100.00;98786.09;5125131;27;20609;-84
2023/01/04 07:45:53;;;;;;;2.53;0.80;;;;;;;6.25;100.00;98803.44;5128428;27;20043;-84
2023/01/04 07:48:21;;;;;;;1.05;0.90;;;;;;;6.29;100.00;98811.94;5129921;27;20126;-85
2023/01/04 07:50:48;;;;;;;0.70;0.70;;;;;;;6.32;100.00;98828.22;5131638;27;20043;-86
2023/01/04 07:53:15;;;;;;;1.30;0.88;;;;;;;6.01;100.00;98792.53;5129795;27;20053;-85
2023/01/04 07:55:42;;;;;;;1.00;0.85;;;;;;;6.36;100.00;98823.69;5131152;27;20058;-85
2023/01/04 07:58:08;;;;;;;1.00;0.80;;;;;;;6.25;100.00;98827.69;5133687;27;20133;-85
2023/01/04 08:00:35;;;;;;;0.80;0.80;;;;;;;6.20;100.00;98821.88;5130069;27;20058;-85
2023/01/04 08:03:03;;;;;;;0.90;0.90;;;;;;;6.35;100.00;98833.25;5130310;27;20047;-85
2023/01/04 08:05:34;;;;;;;1.00;0.90;;;;;;;6.74;100.00;98878.94;5136106;27;20074;-85
2023/01/04 08:08:00;;;;;;;1.13;0.90;;;;;;;6.41;100.00;98839.88;5141575;27;20047;-85
2023/01/04 08:10:28;;;;;;;1.52;0.98;;;;;;;6.34;100.00;98818.56;5136162;27;20393;-85
2023/01/04 08:12:57;;;;;;;1.13;0.90;;;;;;;6.80;100.00;98909.00;5130451;27;20050;-85
2023/01/04 08:15:25;;;;;;;1.00;0.90;;;;;;;6.49;100.00;98842.13;5145452;27;20047;-85
2023/01/04 08:17:52;;;;;;;1.02;0.90;;;;;;;6.62;100.00;98870.00;5130796;27;20047;-84
2023/01/04 08:20:19;;;;;;;0.95;0.88;;;;;;;6.70;100.00;98872.22;5149149;27;20047;-83
2023/01/04 08:22:45;;;;;;;1.08;0.88;;;;;;;6.49;100.00;98834.31;5128149;27;20043;-84
2023/01/04 08:25:12;;;;;;;1.00;0.90;;;;;;;6.63;100.00;98886.44;5124459;27;20104;-84
2023/01/04 08:27:40;;;;;;;0.80;0.80;;;;;;;6.46;100.00;98856.94;5128544;27;20043;-84
2023/01/04 08:30:10;;;;;;;1.20;0.90;;;;;;;6.48;100.00;98872.47;5125732;27;20055;-84
2023/01/04 08:32:39;;;;;;;0.73;0.73;;;;;;;6.55;100.00;98906.78;5125961;27;20472;-84
2023/01/04 08:35:07;;;;;;;0.85;0.80;;;;;;;6.68;100.00;98897.47;5143850;27;20042;-84
2023/01/04 08:37:34;;;;;;;0.85;0.85;;;;;;;6.43;100.00;98872.69;5130531;27;20046;-84
2023/01/04 08:40:01;;;;;;;0.80;0.80;;;;;;;6.50;100.00;98874.97;5127559;27;20043;-84
2023/01/04 08:42:28;;;;;;;1.27;0.90;;;;;;;6.71;100.00;98888.66;5125001;27;20055;-84
2023/01/04 08:44:59;;;;;;;1.48;0.90;;;;;;;6.70;100.00;98890.41;5124072;27;20073;-84
2023/01/04 08:47:31;;;;;;;1.98;1.05;;;;;;;6.47;100.00;98875.97;5126897;27;20043;-85
2023/01/04 08:49:59;;;;;;;1.45;0.93;;;;;;;6.67;100.00;98919.16;5140189;27;20051;-84
2023/01/04 08:52:35;;;;;;;0.80;0.80;;;;;;;6.46;100.00;98875.16;5142750;27;20415;-84
2023/01/04 08:55:02;;;;;;;1.40;0.93;;;;;;;6.69;100.00;98926.91;5123150;27;20047;-84
2023/01/04 08:57:37;;;;;;;1.13;1.00;;;;;;;6.47;100.00;98902.81;5148522;27;20150;-84
2023/01/04 09:00:05;;;;;;;2.05;1.00;;;;;;;6.80;100.00;98937.63;5142299;27;20403;-84
2023/01/04 09:02:32;;;;;;;1.23;0.93;;;;;;;6.86;100.00;98952.91;5146245;27;20043;-84
2023/01/04 09:05:01;;;;;;;1.00;0.90;;;;;;;6.65;100.00;98921.84;5143681;27;20072;-84
2023/01/04 09:07:30;;;;;;;1.20;0.80;;;;;;;7.02;100.00;98964.19;5141598;27;20126;-85
2023/01/04 09:09:56;;;;;;;1.00;0.90;;;;;;;6.84;100.00;98947.78;5146899;27;20430;-84
2023/01/04 09:12:23;;;;;;;1.20;0.90;;;;;;;6.64;100.00;98933.19;5149396;27;20053;-84
2023/01/04 09:14:50;;;;;;;1.10;0.80;;;;;;;6.85;100.00;98951.22;5127994;27;20043;-84
2023/01/04 09:17:17;;;;;;;1.23;0.98;;;;;;;6.73;100.00;98928.41;5146301;27;21475;-84
2023/01/04 09:19:43;;;;;;;0.80;0.80;;;;;;;6.71;100.00;98930.25;5138652;27;20130;-85
2023/01/04 09:22:10;;;;;;;1.30;0.80;;;;;;;6.88;100.00;98966.66;5123856;27;20055;-84
2023/01/04 09:24:37;;;;;;;0.95;0.82;;;;;;;6.86;100.00;98949.47;5142976;27;20050;-85
2023/01/04 09:27:04;;;;;;;1.25;0.93;;;;;;;6.83;100.00;98964.31;5143067;27;20483;-84
2023/01/04 09:29:30;;;;;;;1.08;0.85;;;;;;;6.74;100.00;98966.53;5127924;27;20055;-84
2023/01/04 09:31:57;;;;;;;0.90;0.80;;;;;;;6.93;100.00;98987.25;5129510;27;20103;-83
2023/01/04 09:34:24;;;;;;;2.05;1.00;;;;;;;7.16;100.00;98999.94;5134306;27;20404;-84
2023/01/04 09:36:51;;;;;;;1.67;1.20;;;;;;;6.90;100.00;98977.84;5146645;27;20646;-84
2023/01/04 09:39:18;;;;;;;1.63;0.98;;;;;;;6.64;100.00;98943.59;5138046;27;20039;-84
2023/01/04 09:41:56;;;;;;;1.67;0.93;;;;;;;7.32;100.00;99018.22;5148625;27;20096;-86
2023/01/04 09:44:35;;;;;;;1.67;1.00;;;;;;;7.13;100.00;99015.69;5129694;27;20468;-85
2023/01/04 09:47:31;;;;;;;4.20;1.10;;;;;;;7.27;100.00;99032.41;5129501;27;20039;-85
2023/01/04 09:50:05;;;;;;;1.63;1.00;;;;;;;7.11;100.00;99017.53;5130158;27;20051;-85
2023/01/04 09:52:42;;;;;;;1.80;0.90;;;;;;;6.82;100.00;98961.78;5148603;27;20054;-85
2023/01/04 09:55:20;;;;;;;1.75;1.00;;;;;;;6.63;100.00;98967.06;5146521;27;20050;-85
2023/01/04 09:58:38;;;;;;;1.63;0.95;;;;;;;7.19;100.00;99036.22;5134280;27;20396;-85
2023/01/04 10:01:07;;;;;;;1.38;0.90;;;;;;;7.32;100.00;99051.22;5130137;27;20055;-84
2023/01/04 10:03:37;;;;;;;3.42;1.17;;;;;;;6.78;100.00;98983.66;5150458;27;20472;-85
2023/01/04 10:06:08;;;;;;;2.22;1.10;;;;;;;6.78;100.00;98996.66;5141196;27;20550;-85
2023/01/04 10:08:35;;;;;;;2.85;1.00;;;;;;;7.07;100.00;99028.22;5148182;27;20046;-85
2023/01/04 10:11:21;;;;;;;1.92;1.02;;;;;;;7.33;100.00;99071.13;5126546;27;20107;-85
2023/01/04 10:14:12;;;;;;;2.63;1.00;;;;;;;7.45;100.00;99067.88;5125276;27;20047;-85
2023/01/04 10:17:03;;;;;;;1.80;0.95;;;;;;;6.75;100.00;98974.25;5134870;27;20050;-84
2023/01/04 10:20:18;;;;;;;4.00;1.10;;;;;;;7.52;100.00;99068.41;5128682;27;20435;-85
2023/01/04 10:23:19;;;;;;;2.25;1.00;;;;;;;7.42;100.00;99078.47;5132371;27;20549;-85
2023/01/04 10:26:20;;;;;;;1.30;0.90;;;;;;;7.43;100.00;99076.72;5144271;27;20046;-85
2023/01/04 10:29:09;;;;;;;2.03;1.00;;;;;;;7.33;100.00;99086.75;5134997;27;20480;-85
2023/01/04 10:31:44;;;;;;;2.45;1.10;;;;;;;6.95;100.00;99006.25;5149422;27;20051;-84
2023/01/04 10:34:19;;;;;;;2.75;1.17;;;;;;;7.30;100.00;99099.94;5129378;27;20047;-85
2023/01/04 10:36:48;;;;;;;3.72;1.00;;;;;;;7.31;100.00;99068.63;5135226;27;20487;-85
2023/01/04 10:39:21;;;;;;;2.65;1.10;;;;;;;7.44;100.00;99080.97;5131024;27;20484;-84
2023/01/04 10:42:15;;;;;;;1.65;1.00;;;;;;;7.33;100.00;99066.78;5153690;27;20043;-84
2023/01/04 10:44:53;;;;;;;3.50;1.20;;;;;;;7.56;100.00;99112.47;5148324;27;20415;-84
2023/01/04 10:47:43;;;;;;;3.33;1.00;;;;;;;7.31;100.00;99101.59;5122714;27;20463;-84
2023/01/04 10:50:13;;;;;;;3.45;1.13;;;;;;;7.51;100.00;99118.84;5152584;27;20046;-86
2023/01/04 10:52:46;;;;;;;1.90;1.00;;;;;;;7.49;100.00;99123.25;5143626;27;20051;-84
2023/01/04 10:55:29;;;;;;;2.33;0.98;;;;;;;7.08;100.00;99079.31;5129705;27;20046;-85
2023/01/04 10:58:01;;;;;;;2.30;1.00;;;;;;;7.14;100.00;99072.06;5131276;27;20047;-86
2023/01/04 11:00:39;;;;;;;4.03;1.10;;;;;;;7.23;100.00;99083.78;5153893;27;20064;-84
2023/01/04 11:03:12;;;;;;;3.88;1.20;;;;;;;7.02;100.00;99057.88;5131537;27;20126;-84
2023/01/04 11:05:58;;;;;;;3.65;1.13;;;;;;;7.53;100.00;99141.28;5149069;27;20528;-85
2023/01/04 11:08:35;;;;;;;1.73;1.00;;;;;;;7.36;100.00;99108.25;5129001;27;20046;-84
2023/01/04 11:11:09;;;;;;;4.15;1.20;;;;;;;7.66;100.00;99133.66;5124495;27;20050;-85
2023/01/04 11:13:37;;;;;;;4.57;1.20;;;;;;;7.55;100.00;99122.97;5141827;27;20468;-84
2023/01/04 11:16:05;;;;;;;4.15;1.10;;;;;;;7.58;100.00;99148.88;5156007;27;20054;-85
2023/01/04 11:18:36;;;;;;;5.10;1.20;;;;;;;7.45;100.00;99134.75;5133354;27;20086;-84
2023/01/04 11:21:11;;;;;;;3.25;1.08;;;;;;;7.37;100.00;99111.72;5151652;27;20047;-84
2023/01/04 11:23:38;;;;;;;3.78;1.20;;;;;;;7.46;100.00;99133.84;5136167;27;20057;-86
2023/01/04 11:26:21;;;;;;;2.50;1.30;;;;;;;7.44;100.00;99146.94;5135039;27;20046;-86
2023/01/04 11:28:56;;;;;;;2.67;1.30;;;;;;;7.60;100.00;99147.03;5137264;27;20042;-86
2023/01/04 11:31:43;;;;;;;2.95;1.20;;;;;;;7.74;100.00;99173.22;5144875;27;20042;-85
2023/01/04 11:34:10;;;;;;;3.33;1.25;;;;;;;7.75;100.00;99179.25;5156142;27;20126;-86
2023/01/04 11:36:39;;;;;;;1.83;1.05;;;;;;;7.56;100.00;99158.50;5134236;27;20047;-85
2023/01/04 11:39:17;;;;;;;2.92;1.20;;;;;;;7.62;100.00;99167.78;5122246;27;20047;-86
2023/01/04 11:42:04;;;;;;;2.72;1.10;;;;;;;7.82;100.00;99196.25;5146824;27;20108;-86
2023/01/04 11:44:33;;;;;;;1.10;0.90;;;;;;;7.77;100.00;99188.69;5119414;27;20484;-86
2023/01/04 11:47:23;;;;;;;2.00;1.00;;;;;;;7.68;100.00;99177.88;5126239;27;20043;-85
2023/01/04 11:49:54;;;;;;;;;;;;;;;7.77;100.00;99201.72;5135161;27;20424;-86
2023/01/04 11:52:33;;;;;;;3.33;1.40;;;;;;;7.58;100.00;99178.34;5135032;27;19998;-86
2023/01/04 11:55:15;;;;;;;6.30;1.30;;;;;;;7.31;100.00;99154.53;5150306;27;20401;-86
2023/01/04 11:57:42;;;;;;;4.72;1.20;;;;;;;7.74;100.00;99214.91;5137314;27;20043;-86
2023/01/04 12:00:14;;;;;;;2.53;1.10;;;;;;;7.50;100.00;99164.84;5131700;27;20065;-86
2023/01/04 12:02:41;;;;;;;5.78;1.50;;;;;;;7.55;100.00;99203.72;5148560;27;20061;-87
2023/01/04 12:05:30;;;;;;;3.47;1.55;;;;;;;7.41;100.00;99155.75;5128822;27;20491;-84
2023/01/04 12:07:58;;;;;;;5.40;1.38;;;;;;;7.89;100.00;99215.88;5143395;27;20675;-85
2023/01/04 12:10:26;;;;;;;3.15;1.20;;;;;;;7.06;100.00;99100.22;5122346;27;20051;-85
2023/01/04 12:12:59;;;;;;;5.82;1.60;;;;;;;7.42;100.00;99161.81;5128982;27;20051;-85
2023/01/04 12:15:58;;;;;;;5.05;1.40;;;;;;;7.74;100.00;99211.47;5130596;27;20050;-86
2023/01/04 12:18:27;;;;;;;6.05;1.52;;;;;;;7.16;100.00;99127.47;5128109;27;20046;-85
2023/01/04 12:20:55;;;;;;;4.72;1.25;;;;;;;7.27;100.00;99159.97;5146403;27;20058;-85
2023/01/04 12:23:22;;;;;;;6.00;1.30;;;;;;;7.33;100.00;99146.63;5127849;27;20053;-86
2023/01/04 12:25:51;;;;;;;6.47;1.70;;;;;;;7.24;100.00;99173.94;5130838;27;20738;-86
2023/01/04 12:28:36;;;;;;;4.55;1.70;;;;;;;7.57;100.00;99215.72;5121251;27;20043;-83
2023/01/04 12:31:17;;;;;;;4.40;1.42;;;;;;;7.69;100.00;99242.94;5143280;27;20047;-84
2023/01/04 12:33:50;;;;;;;;;;;;;;;7.68;100.00;99238.63;5124474;27;20047;-86
2023/01/04 12:36:19;;;;;;;4.55;1.25;;;;;;;7.62;100.00;99230.31;5129090;27;19923;-84
2023/01/04 12:39:10;;;;;;;3.30;1.20;;;;;;;7.63;100.00;99247.59;5122558;27;20495;-85
2023/01/04 12:41:37;;;;;;;5.25;1.33;;;;;;;7.52;100.00;99259.38;5128611;27;20950;-85
2023/01/04 12:44:36;;;;;;;4.93;1.75;;;;;;;7.30;100.00;99215.31;5149470;27;20051;-85
2023/01/04 12:50:22;;;;;;;5.25;1.38;;;;;;;8.30;100.00;99265.03;5143524;27;20062;-85